Hauptseite
METAR-TAF:

METAR-TAF

Flughäfen :

Flughafen Bagdad

Bagdad, Irak

Breite: 33-15-45N, Länge: 44-14-04E, Höhe: 35 m

Beobachtung

Neuester Wetterbericht von vor 47 Minuten, um 04:00 UTC
Wind 3 kt aus Ost
Temperatur 16°C
Luftfeuchtigkeit 94%
Luftdruck 1014 hPa
Sichtweite: 5000 m
Leicht bewölkt in der Höhe von 3000 ft
Geschlossene Wolkendecke in der Höhe von 10000 ft
Sprühregen

METAR: ORBI 150400Z 09003KT 5000 DZ FEW030 OVC100 16/15 Q1014 NOSIG

Zeit: 07:47 (04:47 UTC)

Prognose

Neuester Wetterbericht von vor 6 Stunden und 47 Minuten, um 22:00 UTC
Gültige Prognose vom 15 um 00 UTC bis 15 um 24 UTC
Wind 10 kt aus Ost/Südost
Sichtweite: 6000 m
Geschlossene Wolkendecke in der Höhe von 1000 ft

TAF: ORBI 142200Z 1500/1524 12010KT 6000 OVC010

Wetterbeobachtungen und Prognosen von mehr als 4000 Flughäfen (METAR und TAF Bericht).

Die verfügbaren Stationen werden durch gelbe und rote Markierungen auf der Karte dargestellt.

Führen Sie die Maus auf sie, um den Namen der Station zu sehen.

Darauf klicken, um die Beobachtung von Wetterbeobachtungen und Prognosen zu sehen.

Um die Karte zu ändern : klicken Sie auf den grünen Tasten mit einem schwarzen Kreuz Zum Vergrößern, auf den grünen Button mit einem Gedankenstrich zu verkleinern, oder auf die grünen Pfeile für benachbarte Karten.


METAR-TAF: